sensor_id;sensor_type;location;lat;lon;timestamp;pressure;altitude;pressure_sealevel;temperature;humidity
49044;BME280;34860;48.066;14.124;2023-02-20T00:01:31;97486.75;;;7.93;71.49
49044;BME280;34860;48.066;14.124;2023-02-20T00:04:20;97497.00;;;7.93;71.56
49044;BME280;34860;48.066;14.124;2023-02-20T00:07:08;97490.69;;;7.92;71.53
49044;BME280;34860;48.066;14.124;2023-02-20T00:09:56;97486.31;;;7.91;71.46
49044;BME280;34860;48.066;14.124;2023-02-20T00:12:45;97488.31;;;7.91;71.57
49044;BME280;34860;48.066;14.124;2023-02-20T00:15:33;97485.56;;;7.91;71.55
49044;BME280;34860;48.066;14.124;2023-02-20T00:18:22;97482.78;;;7.91;71.56
49044;BME280;34860;48.066;14.124;2023-02-20T00:21:11;97479.22;;;7.90;71.47
49044;BME280;34860;48.066;14.124;2023-02-20T00:23:59;97478.47;;;7.90;71.54
49044;BME280;34860;48.066;14.124;2023-02-20T00:26:49;97486.31;;;7.91;71.64
49044;BME280;34860;48.066;14.124;2023-02-20T00:29:37;97482.00;;;7.90;71.56
49044;BME280;34860;48.066;14.124;2023-02-20T00:32:26;97488.31;;;7.91;71.53
49044;BME280;34860;48.066;14.124;2023-02-20T00:35:17;97474.88;;;7.89;71.63
49044;BME280;34860;48.066;14.124;2023-02-20T00:38:05;97471.34;;;7.89;71.59
49044;BME280;34860;48.066;14.124;2023-02-20T00:40:53;97474.09;;;7.89;71.54
49044;BME280;34860;48.066;14.124;2023-02-20T00:43:41;97470.56;;;7.88;71.50
49044;BME280;34860;48.066;14.124;2023-02-20T00:46:29;97480.81;;;7.88;71.52
49044;BME280;34860;48.066;14.124;2023-02-20T00:49:17;97472.50;;;7.88;71.62
49044;BME280;34860;48.066;14.124;2023-02-20T00:52:07;97470.13;;;7.86;71.52
49044;BME280;34860;48.066;14.124;2023-02-20T00:54:55;97471.72;;;7.87;71.46
49044;BME280;34860;48.066;14.124;2023-02-20T00:57:43;97467.38;;;7.86;71.42
49044;BME280;34860;48.066;14.124;2023-02-20T01:00:33;97468.19;;;7.87;71.43
49044;BME280;34860;48.066;14.124;2023-02-20T01:03:22;97475.66;;;7.86;71.37
49044;BME280;34860;48.066;14.124;2023-02-20T01:06:10;97472.53;;;7.84;71.43
49044;BME280;34860;48.066;14.124;2023-02-20T01:09:00;97476.47;;;7.83;71.55
49044;BME280;34860;48.066;14.124;2023-02-20T01:11:48;97473.69;;;7.83;71.42
49044;BME280;34860;48.066;14.124;2023-02-20T01:14:36;97456.31;;;7.82;71.35
49044;BME280;34860;48.066;14.124;2023-02-20T01:17:25;97472.13;;;7.82;71.36
49044;BME280;34860;48.066;14.124;2023-02-20T01:20:14;97465.78;;;7.81;71.43
49044;BME280;34860;48.066;14.124;2023-02-20T01:23:02;97463.84;;;7.82;71.48
49044;BME280;34860;48.066;14.124;2023-02-20T01:25:52;97468.97;;;7.80;71.38
49044;BME280;34860;48.066;14.124;2023-02-20T01:28:42;97453.97;;;7.77;71.33
49044;BME280;34860;48.066;14.124;2023-02-20T01:31:31;97461.47;;;7.77;71.38
49044;BME280;34860;48.066;14.124;2023-02-20T01:34:19;97455.16;;;7.76;71.44
49044;BME280;34860;48.066;14.124;2023-02-20T01:37:11;97455.91;;;7.77;71.35
49044;BME280;34860;48.066;14.124;2023-02-20T01:40:00;97457.91;;;7.76;71.28
49044;BME280;34860;48.066;14.124;2023-02-20T01:42:49;97455.53;;;7.75;71.37
49044;BME280;34860;48.066;14.124;2023-02-20T01:45:38;97452.00;;;7.74;71.41
49044;BME280;34860;48.066;14.124;2023-02-20T01:48:27;97442.09;;;7.73;71.45
49044;BME280;34860;48.066;14.124;2023-02-20T01:51:15;97448.44;;;7.70;71.38
49044;BME280;34860;48.066;14.124;2023-02-20T01:54:06;97440.53;;;7.69;71.49
49044;BME280;34860;48.066;14.124;2023-02-20T01:56:57;97444.09;;;7.69;71.49
49044;BME280;34860;48.066;14.124;2023-02-20T01:59:51;97451.22;;;7.67;71.40
49044;BME280;34860;48.066;14.124;2023-02-20T02:02:47;97453.59;;;7.68;71.47
49044;BME280;34860;48.066;14.124;2023-02-20T02:05:38;97465.81;;;7.67;71.40
49044;BME280;34860;48.066;14.124;2023-02-20T02:08:27;97455.16;;;7.69;71.33
49044;BME280;34860;48.066;14.124;2023-02-20T02:11:18;97450.41;;;7.70;71.27
49044;BME280;34860;48.066;14.124;2023-02-20T02:14:07;97459.09;;;7.72;71.24
49044;BME280;34860;48.066;14.124;2023-02-20T02:17:17;97476.91;;;7.74;71.36
49044;BME280;34860;48.066;14.124;2023-02-20T02:20:39;97464.25;;;7.73;71.33
49044;BME280;34860;48.066;14.124;2023-02-20T02:24:04;97479.66;;;7.74;71.21
49044;BME280;34860;48.066;14.124;2023-02-20T02:27:20;97467.00;;;7.73;71.27
49044;BME280;34860;48.066;14.124;2023-02-20T02:30:34;97473.75;;;7.72;71.18
49044;BME280;34860;48.066;14.124;2023-02-20T02:33:56;97477.28;;;7.73;71.33
49044;BME280;34860;48.066;14.124;2023-02-20T02:36:55;97474.91;;;7.75;71.32
49044;BME280;34860;48.066;14.124;2023-02-20T02:39:52;97476.13;;;7.74;71.46
49044;BME280;34860;48.066;14.124;2023-02-20T02:42:50;97462.69;;;7.72;71.21
49044;BME280;34860;48.066;14.124;2023-02-20T02:45:45;97465.44;;;7.72;71.33
49044;BME280;34860;48.066;14.124;2023-02-20T02:48:36;97473.75;;;7.72;71.25
49044;BME280;34860;48.066;14.124;2023-02-20T02:51:30;97473.75;;;7.72;71.38
49044;BME280;34860;48.066;14.124;2023-02-20T02:54:24;97486.78;;;7.68;71.16
49044;BME280;34860;48.066;14.124;2023-02-20T02:57:20;97477.72;;;7.68;71.30
49044;BME280;34860;48.066;14.124;2023-02-20T03:00:12;97486.78;;;7.68;71.21
49044;BME280;34860;48.066;14.124;2023-02-20T03:03:05;97489.94;;;7.70;71.14
49044;BME280;34860;48.066;14.124;2023-02-20T03:05:58;97480.47;;;7.68;71.20
49044;BME280;34860;48.066;14.124;2023-02-20T03:08:52;97477.72;;;7.68;71.23
49044;BME280;34860;48.066;14.124;2023-02-20T03:11:45;97453.19;;;7.66;71.19
49044;BME280;34860;48.066;14.124;2023-02-20T03:14:44;97450.84;;;7.64;71.31
49044;BME280;34860;48.066;14.124;2023-02-20T03:17:56;97449.25;;;7.63;71.22
49044;BME280;34860;48.066;14.124;2023-02-20T03:20:47;97449.25;;;7.60;71.18
49044;BME280;34860;48.066;14.124;2023-02-20T03:23:39;97444.13;;;7.58;71.34
49044;BME280;34860;48.066;14.124;2023-02-20T03:26:32;97445.69;;;7.59;71.36
49044;BME280;34860;48.066;14.124;2023-02-20T03:29:28;97455.19;;;7.58;71.30
49044;BME280;34860;48.066;14.124;2023-02-20T03:32:18;97457.16;;;7.58;71.19
49044;BME280;34860;48.066;14.124;2023-02-20T03:35:26;97465.47;;;7.58;71.18
49044;BME280;34860;48.066;14.124;2023-02-20T03:38:36;97460.72;;;7.58;71.12
49044;BME280;34860;48.066;14.124;2023-02-20T03:41:45;97461.13;;;7.57;71.29
49044;BME280;34860;48.066;14.124;2023-02-20T03:44:55;97473.34;;;7.56;71.20
49044;BME280;34860;48.066;14.124;2023-02-20T03:47:46;97466.66;;;7.57;71.21
49044;BME280;34860;48.066;14.124;2023-02-20T03:50:40;97475.72;;;7.57;71.01
49044;BME280;34860;48.066;14.124;2023-02-20T03:53:51;97470.97;;;7.54;71.14
49044;BME280;34860;48.066;14.124;2023-02-20T03:56:42;97484.41;;;7.56;71.11
49044;BME280;34860;48.066;14.124;2023-02-20T03:59:36;97482.03;;;7.54;71.20
49044;BME280;34860;48.066;14.124;2023-02-20T04:02:30;97493.94;;;7.55;71.06
49044;BME280;34860;48.066;14.124;2023-02-20T04:05:21;97486.81;;;7.54;71.13
49044;BME280;34860;48.066;14.124;2023-02-20T04:08:13;97478.09;;;7.55;71.14
49044;BME280;34860;48.066;14.124;2023-02-20T04:11:07;97480.47;;;7.57;71.11
49044;BME280;34860;48.066;14.124;2023-02-20T04:13:57;97479.31;;;7.58;71.09
49044;BME280;34860;48.066;14.124;2023-02-20T04:16:51;97482.47;;;7.56;71.06
49044;BME280;34860;48.066;14.124;2023-02-20T04:19:43;97482.47;;;7.56;70.95
49044;BME280;34860;48.066;14.124;2023-02-20T04:22:37;97485.22;;;7.56;71.14
49044;BME280;34860;48.066;14.124;2023-02-20T04:25:32;97493.53;;;7.56;71.12
49044;BME280;34860;48.066;14.124;2023-02-20T04:28:24;97495.91;;;7.58;71.14
49044;BME280;34860;48.066;14.124;2023-02-20T04:31:20;97498.66;;;7.58;71.13
49044;BME280;34860;48.066;14.124;2023-02-20T04:34:09;97488.00;;;7.56;71.18
49044;BME280;34860;48.066;14.124;2023-02-20T04:37:05;97481.25;;;7.57;71.03
49044;BME280;34860;48.066;14.124;2023-02-20T04:39:54;97476.53;;;7.58;71.08
49044;BME280;34860;48.066;14.124;2023-02-20T04:42:43;97478.50;;;7.57;71.03
49044;BME280;34860;48.066;14.124;2023-02-20T04:45:31;97471.41;;;7.56;71.02
49044;BME280;34860;48.066;14.124;2023-02-20T04:48:20;97471.78;;;7.55;71.03
49044;BME280;34860;48.066;14.124;2023-02-20T04:51:08;97466.25;;;7.55;71.06
49044;BME280;34860;48.066;14.124;2023-02-20T04:53:58;97471.78;;;7.55;71.03
49044;BME280;34860;48.066;14.124;2023-02-20T04:56:46;97468.22;;;7.54;71.08
49044;BME280;34860;48.066;14.124;2023-02-20T04:59:35;97473.34;;;7.56;71.02
49044;BME280;34860;48.066;14.124;2023-02-20T05:02:23;97467.81;;;7.56;71.10
49044;BME280;34860;48.066;14.124;2023-02-20T05:05:17;97479.31;;;7.58;71.00
49044;BME280;34860;48.066;14.124;2023-02-20T05:08:06;97481.63;;;7.59;70.96
49044;BME280;34860;48.066;14.124;2023-02-20T05:10:56;97475.72;;;7.57;71.01
49044;BME280;34860;48.066;14.124;2023-02-20T05:13:44;97478.50;;;7.57;70.95
49044;BME280;34860;48.066;14.124;2023-02-20T05:16:33;97487.59;;;7.58;71.07
49044;BME280;34860;48.066;14.124;2023-02-20T05:19:21;97487.97;;;7.60;71.07
49044;BME280;34860;48.066;14.124;2023-02-20T05:22:10;97476.53;;;7.58;70.95
49044;BME280;34860;48.066;14.124;2023-02-20T05:25:07;97473.78;;;7.58;71.00
49044;BME280;34860;48.066;14.124;2023-02-20T05:27:57;97486.41;;;7.59;71.02
49044;BME280;34860;48.066;14.124;2023-02-20T05:30:45;97482.47;;;7.56;71.06
49044;BME280;34860;48.066;14.124;2023-02-20T05:33:33;97484.03;;;7.57;70.99
49044;BME280;34860;48.066;14.124;2023-02-20T05:36:22;97477.72;;;7.57;70.96
49044;BME280;34860;48.066;14.124;2023-02-20T05:39:10;97484.84;;;7.58;70.96
49044;BME280;34860;48.066;14.124;2023-02-20T05:41:58;97481.25;;;7.57;71.03
49044;BME280;34860;48.066;14.124;2023-02-20T05:44:48;97481.25;;;7.57;70.91
49044;BME280;34860;48.066;14.124;2023-02-20T05:47:36;97484.81;;;7.54;70.98
49044;BME280;34860;48.066;14.124;2023-02-20T05:50:25;97481.28;;;7.54;71.01
49044;BME280;34860;48.066;14.124;2023-02-20T05:53:13;97484.03;;;7.54;71.03
49044;BME280;34860;48.066;14.124;2023-02-20T05:56:02;97494.31;;;7.53;70.94
49044;BME280;34860;48.066;14.124;2023-02-20T05:58:50;97499.03;;;7.53;70.93
49044;BME280;34860;48.066;14.124;2023-02-20T06:01:40;97504.56;;;7.53;70.90
49044;BME280;34860;48.066;14.124;2023-02-20T06:04:28;97503.00;;;7.52;71.06
49044;BME280;34860;48.066;14.124;2023-02-20T06:07:17;97506.94;;;7.51;70.91
49044;BME280;34860;48.066;14.124;2023-02-20T06:10:05;97512.47;;;7.51;70.96
49044;BME280;34860;48.066;14.124;2023-02-20T06:12:53;97510.50;;;7.51;70.92
49044;BME280;34860;48.066;14.124;2023-02-20T06:15:41;97523.94;;;7.53;70.88
49044;BME280;34860;48.066;14.124;2023-02-20T06:18:31;97521.59;;;7.55;70.87
49044;BME280;34860;48.066;14.124;2023-02-20T06:21:19;97525.13;;;7.55;70.82
49044;BME280;34860;48.066;14.124;2023-02-20T06:24:08;97527.50;;;7.57;70.86
49044;BME280;34860;48.066;14.124;2023-02-20T06:26:57;97530.28;;;7.57;70.78
49044;BME280;34860;48.066;14.124;2023-02-20T06:29:46;97520.78;;;7.58;70.92
49044;BME280;34860;48.066;14.124;2023-02-20T06:32:34;97531.44;;;7.59;70.79
49044;BME280;34860;48.066;14.124;2023-02-20T06:35:24;97538.56;;;7.60;70.82
49044;BME280;34860;48.066;14.124;2023-02-20T06:38:12;97538.94;;;7.59;70.84
49044;BME280;34860;48.066;14.124;2023-02-20T06:41:00;97544.09;;;7.57;70.87
49044;BME280;34860;48.066;14.124;2023-02-20T06:43:48;97549.63;;;7.57;70.87
49044;BME280;34860;48.066;14.124;2023-02-20T06:46:37;97559.50;;;7.54;70.87
49044;BME280;34860;48.066;14.124;2023-02-20T06:49:25;97553.97;;;7.54;71.15
49044;BME280;34860;48.066;14.124;2023-02-20T06:52:14;97543.69;;;7.51;70.93
49044;BME280;34860;48.066;14.124;2023-02-20T06:55:02;97545.28;;;7.52;70.82
49044;BME280;34860;48.066;14.124;2023-02-20T06:57:51;97549.63;;;7.53;70.92
49044;BME280;34860;48.066;14.124;2023-02-20T07:00:39;97550.81;;;7.52;70.88
49044;BME280;34860;48.066;14.124;2023-02-20T07:03:27;97565.44;;;7.56;70.94
49044;BME280;34860;48.066;14.124;2023-02-20T07:06:15;97556.34;;;7.56;70.90
49044;BME280;34860;48.066;14.124;2023-02-20T07:09:05;97548.84;;;7.56;70.79
49044;BME280;34860;48.066;14.124;2023-02-20T07:11:54;97559.09;;;7.56;70.82
49044;BME280;34860;48.066;14.124;2023-02-20T07:14:42;97535.41;;;7.55;70.78
49044;BME280;34860;48.066;14.124;2023-02-20T07:17:30;97544.88;;;7.57;70.73
49044;BME280;34860;48.066;14.124;2023-02-20T07:20:18;97540.56;;;7.56;70.79
49044;BME280;34860;48.066;14.124;2023-02-20T07:23:06;97546.09;;;7.56;70.81
49044;BME280;34860;48.066;14.124;2023-02-20T07:25:56;97561.50;;;7.64;70.74
49044;BME280;34860;48.066;14.124;2023-02-20T07:28:44;97555.94;;;7.72;70.66
49044;BME280;34860;48.066;14.124;2023-02-20T07:31:32;97539.34;;;7.79;70.63
49044;BME280;34860;48.066;14.124;2023-02-20T07:34:21;97552.00;;;7.84;70.55
49044;BME280;34860;48.066;14.124;2023-02-20T07:37:09;97563.03;;;7.91;70.78
49044;BME280;34860;48.066;14.124;2023-02-20T07:39:57;97568.56;;;7.94;70.36
49044;BME280;34860;48.066;14.124;2023-02-20T07:42:47;97570.53;;;7.97;70.73
49044;BME280;34860;48.066;14.124;2023-02-20T07:45:40;97570.94;;;8.03;70.45
49044;BME280;34860;48.066;14.124;2023-02-20T07:48:28;97565.78;;;8.05;70.44
49044;BME280;34860;48.066;14.124;2023-02-20T07:51:16;97579.63;;;8.05;70.32
49044;BME280;34860;48.066;14.124;2023-02-20T07:54:04;97579.25;;;8.07;70.45
49044;BME280;34860;48.066;14.124;2023-02-20T07:56:53;97580.44;;;8.09;70.39
49044;BME280;34860;48.066;14.124;2023-02-20T07:59:43;97581.19;;;8.13;70.35
49044;BME280;34860;48.066;14.124;2023-02-20T08:02:31;97570.53;;;8.15;70.44
49044;BME280;34860;48.066;14.124;2023-02-20T08:05:19;97576.06;;;8.15;70.41
49044;BME280;34860;48.066;14.124;2023-02-20T08:08:07;97571.69;;;8.18;70.35
49044;BME280;34860;48.066;14.124;2023-02-20T08:10:56;97568.53;;;8.19;70.41
49044;BME280;34860;48.066;14.124;2023-02-20T08:13:54;97571.31;;;8.19;70.35
49044;BME280;34860;48.066;14.124;2023-02-20T08:16:43;97572.09;;;8.20;70.30
49044;BME280;34860;48.066;14.124;2023-02-20T08:19:31;97562.59;;;8.21;70.50
49044;BME280;34860;48.066;14.124;2023-02-20T08:22:19;97562.59;;;8.21;70.47
49044;BME280;34860;48.066;14.124;2023-02-20T08:25:14;97558.66;;;8.22;70.28
49044;BME280;34860;48.066;14.124;2023-02-20T08:28:03;97560.63;;;8.25;70.21
49044;BME280;34860;48.066;14.124;2023-02-20T08:30:53;97569.72;;;8.26;70.46
49044;BME280;34860;48.066;14.124;2023-02-20T08:33:43;97559.00;;;8.28;70.36
49044;BME280;34860;48.066;14.124;2023-02-20T08:36:31;97547.16;;;8.34;70.23
49044;BME280;34860;48.066;14.124;2023-02-20T08:39:19;97549.50;;;8.40;70.18
49044;BME280;34860;48.066;14.124;2023-02-20T08:42:08;97546.75;;;8.43;70.21
49044;BME280;34860;48.066;14.124;2023-02-20T08:44:56;97547.09;;;8.52;70.15
49044;BME280;34860;48.066;14.124;2023-02-20T08:47:44;97549.47;;;8.58;70.15
49044;BME280;34860;48.066;14.124;2023-02-20T08:50:36;97545.44;;;8.69;69.99
49044;BME280;34860;48.066;14.124;2023-02-20T08:53:24;97543.81;;;8.76;70.04
49044;BME280;34860;48.066;14.124;2023-02-20T08:56:16;97529.16;;;8.86;69.80
49044;BME280;34860;48.066;14.124;2023-02-20T08:59:05;97535.84;;;8.92;69.92
49044;BME280;34860;48.066;14.124;2023-02-20T09:01:53;97517.19;;;8.96;69.85
49044;BME280;34860;48.066;14.124;2023-02-20T09:04:41;97524.66;;;9.03;69.80
49044;BME280;34860;48.066;14.124;2023-02-20T09:07:31;97515.09;;;9.15;69.75
49044;BME280;34860;48.066;14.124;2023-02-20T09:10:19;97519.38;;;9.26;69.60
49044;BME280;34860;48.066;14.124;2023-02-20T09:13:08;97517.41;;;9.23;69.62
49044;BME280;34860;48.066;14.124;2023-02-20T09:15:56;97512.34;;;9.15;69.77
49044;BME280;34860;48.066;14.124;2023-02-20T09:18:44;97519.88;;;9.11;69.86
49044;BME280;34860;48.066;14.124;2023-02-20T09:21:32;97517.50;;;9.09;69.94
49044;BME280;34860;48.066;14.124;2023-02-20T09:24:22;97506.81;;;9.11;69.94
49044;BME280;34860;48.066;14.124;2023-02-20T09:27:10;97498.81;;;9.20;69.83
49044;BME280;34860;48.066;14.124;2023-02-20T09:29:58;97502.34;;;9.24;69.70
49044;BME280;34860;48.066;14.124;2023-02-20T09:32:47;97509.88;;;9.27;69.83
49044;BME280;34860;48.066;14.124;2023-02-20T09:35:36;97517.38;;;9.31;69.69
49044;BME280;34860;48.066;14.124;2023-02-20T09:38:24;97509.47;;;9.29;69.64
49044;BME280;34860;48.066;14.124;2023-02-20T09:41:28;97518.53;;;9.33;69.81
49044;BME280;34860;48.066;14.124;2023-02-20T09:44:24;97525.63;;;9.38;69.72
49044;BME280;34860;48.066;14.124;2023-02-20T09:47:26;97521.22;;;9.44;69.71
49044;BME280;34860;48.066;14.124;2023-02-20T09:50:23;97513.28;;;9.46;69.65
49044;BME280;34860;48.066;14.124;2023-02-20T09:53:22;97515.66;;;9.44;69.70
49044;BME280;34860;48.066;14.124;2023-02-20T09:56:16;97510.50;;;9.50;69.78
49044;BME280;34860;48.066;14.124;2023-02-20T09:59:12;97490.16;;;9.60;69.57
49044;BME280;34860;48.066;14.124;2023-02-20T10:02:11;97502.78;;;9.72;69.52
49044;BME280;34860;48.066;14.124;2023-02-20T10:05:05;97489.13;;;9.88;69.37
49044;BME280;34860;48.066;14.124;2023-02-20T10:07:55;97491.53;;;9.82;69.39
49044;BME280;34860;48.066;14.124;2023-02-20T10:10:43;97489.94;;;9.85;69.45
49044;BME280;34860;48.066;14.124;2023-02-20T10:13:49;97480.34;;;9.93;69.28
49044;BME280;34860;48.066;14.124;2023-02-20T10:16:46;97478.28;;;10.01;69.22
49044;BME280;34860;48.066;14.124;2023-02-20T10:19:43;97482.59;;;10.06;69.39
49044;BME280;34860;48.066;14.124;2023-02-20T10:22:40;97510.31;;;10.09;69.33
49044;BME280;34860;48.066;14.124;2023-02-20T10:25:34;97519.72;;;10.19;69.18
49044;BME280;34860;48.066;14.124;2023-02-20T10:28:25;97495.81;;;10.32;68.98
49044;BME280;34860;48.066;14.124;2023-02-20T10:31:25;97483.81;;;10.39;68.95
49044;BME280;34860;48.066;14.124;2023-02-20T10:34:21;97469.13;;;10.39;69.01
49044;BME280;34860;48.066;14.124;2023-02-20T10:37:13;97440.63;;;10.31;69.13
49044;BME280;34860;48.066;14.124;2023-02-20T10:40:10;97439.81;;;10.30;69.30
49044;BME280;34860;48.066;14.124;2023-02-20T10:43:03;97451.38;;;10.32;69.26
49044;BME280;34860;48.066;14.124;2023-02-20T10:45:56;97452.84;;;10.41;69.14
49044;BME280;34860;48.066;14.124;2023-02-20T10:48:48;97458.63;;;10.53;69.03
49044;BME280;34860;48.066;14.124;2023-02-20T10:51:42;97440.03;;;10.78;68.75
49044;BME280;34860;48.066;14.124;2023-02-20T10:54:36;97437.56;;;10.83;68.71
49044;BME280;34860;48.066;14.124;2023-02-20T10:57:29;97436.72;;;10.86;68.79
49044;BME280;34860;48.066;14.124;2023-02-20T11:00:23;97444.75;;;11.08;68.71
49044;BME280;34860;48.066;14.124;2023-02-20T11:03:16;97442.63;;;11.16;68.51
49044;BME280;34860;48.066;14.124;2023-02-20T11:06:05;97431.03;;;11.21;68.56
49044;BME280;34860;48.066;14.124;2023-02-20T11:08:58;97418.69;;;11.22;68.55
49044;BME280;34860;48.066;14.124;2023-02-20T11:11:46;97393.09;;;11.31;68.50
49044;BME280;34860;48.066;14.124;2023-02-20T11:14:42;97418.69;;;11.22;68.77
49044;BME280;34860;48.066;14.124;2023-02-20T11:17:33;97396.19;;;11.36;69.12
49044;BME280;34860;48.066;14.124;2023-02-20T11:20:42;97390.91;;;11.42;68.33
49044;BME280;34860;48.066;14.124;2023-02-20T11:23:35;97373.50;;;11.14;68.68
49044;BME280;34860;48.066;14.124;2023-02-20T11:26:29;97364.91;;;10.81;69.27
49044;BME280;34860;48.066;14.124;2023-02-20T11:29:21;97347.72;;;10.63;69.37
49044;BME280;34860;48.066;14.124;2023-02-20T11:32:22;97360.59;;;10.49;69.48
49044;BME280;34860;48.066;14.124;2023-02-20T11:35:20;97348.44;;;10.40;69.52
49044;BME280;34860;48.066;14.124;2023-02-20T11:38:31;97331.06;;;10.35;69.43
49044;BME280;34860;48.066;14.124;2023-02-20T11:41:27;97338.63;;;10.31;69.28
49044;BME280;34860;48.066;14.124;2023-02-20T11:44:20;97323.56;;;10.29;69.29
49044;BME280;34860;48.066;14.124;2023-02-20T11:47:19;97325.19;;;10.26;69.31
49044;BME280;34860;48.066;14.124;2023-02-20T11:50:17;97319.66;;;10.26;69.10
49044;BME280;34860;48.066;14.124;2023-02-20T11:53:18;97316.38;;;10.31;69.09
49044;BME280;34860;48.066;14.124;2023-02-20T11:56:09;97312.38;;;10.36;68.97
